Time;durP1;ratioP1;P1;durP2;ratioP2;P2;SDS_P1;SDS_P2;PMS_P1;PMS_P2;Temp;Humidity;BMP_temperature;BMP_pressure;BME280_temperature;BME280_humidity;BME280_pressure;Samples;Min_cycle;Max_cycle;Signal;HPM_P1;HPM_P2
2023/03/01 00:01:09;;;;;;;;;;;;;;;23.03;48.82;100711.28;7318242;19;129101;-40
2023/03/01 00:03:35;;;;;;;86.45;6.78;;;;;;;22.99;49.06;100725.59;7315656;19;128972;-45
2023/03/01 00:06:01;;;;;;;45.92;5.05;;;;;;;22.89;48.85;100731.69;7315175;19;129844;-38
2023/03/01 00:08:27;;;;;;;48.35;5.45;;;;;;;22.76;49.64;100736.19;7314611;19;129235;-47
2023/03/01 00:11:13;;;;;;;41.00;4.75;;;;;;;22.62;50.37;100725.97;7315412;19;129287;-42
2023/03/01 00:13:40;;;;;;;30.67;4.30;;;;;;;22.53;49.71;100724.03;7316042;19;129072;-38
2023/03/01 00:16:09;;;;;;;29.15;4.22;;;;;;;22.48;50.75;100726.16;7316600;19;129934;-40
2023/03/01 00:18:34;;;;;;;21.77;4.22;;;;;;;22.42;50.83;100726.63;7311391;19;129468;-38
2023/03/01 00:21:00;;;;;;;65.20;6.10;;;;;;;22.34;51.10;100713.28;7315625;19;130514;-40
2023/03/01 00:23:26;;;;;;;23.30;4.10;;;;;;;22.29;51.18;100720.66;7316873;19;128965;-43
2023/03/01 00:25:52;;;;;;;36.17;4.37;;;;;;;22.27;51.88;100722.56;7315570;19;129355;-40
2023/03/01 00:28:17;;;;;;;40.65;4.60;;;;;;;22.23;51.59;100723.75;7312204;19;130264;-38
2023/03/01 00:30:43;;;;;;;66.83;5.83;;;;;;;22.05;51.70;100710.25;7312885;19;129230;-43
2023/03/01 00:33:09;;;;;;;10.80;3.45;;;;;;;22.14;52.00;100732.28;7316072;19;128922;-39
2023/03/01 00:35:34;;;;;;;40.50;4.93;;;;;;;22.07;52.26;100720.59;7314119;19;129555;-39
2023/03/01 00:38:00;;;;;;;21.30;3.70;;;;;;;22.08;52.99;100723.09;7314160;19;129712;-39
2023/03/01 00:40:32;;;;;;;43.83;4.60;;;;;;;22.06;53.48;100716.31;7313923;19;129418;-41
2023/03/01 00:42:57;;;;;;;40.70;4.63;;;;;;;22.04;53.74;100720.84;7315523;19;129014;-43
2023/03/01 00:45:24;;;;;;;22.08;4.10;;;;;;;22.06;52.82;100716.31;7312053;19;129681;-37
2023/03/01 00:47:50;;;;;;;41.78;4.72;;;;;;;22.03;52.92;100719.19;7314754;19;129683;-37
2023/03/01 00:50:16;;;;;;;55.33;5.63;;;;;;;21.97;53.08;100712.59;7310675;19;130591;-40
2023/03/01 00:52:41;;;;;;;32.23;4.27;;;;;;;21.84;52.68;100681.28;7315836;19;129313;-39
2023/03/01 00:55:07;;;;;;;73.27;6.47;;;;;;;22.01;51.99;100700.13;7313427;19;129547;-42
2023/03/01 00:57:33;;;;;;;47.75;5.03;;;;;;;22.05;52.02;100696.34;7313301;19;132073;-39
2023/03/01 00:59:59;;;;;;;48.63;5.33;;;;;;;22.19;51.09;100693.50;7315294;19;129102;-42
2023/03/01 01:02:24;;;;;;;31.80;4.33;;;;;;;22.27;51.17;100701.59;7315963;19;128774;-42
2023/03/01 01:04:49;;;;;;;58.07;5.97;;;;;;;22.41;50.33;100707.44;7312562;19;129686;-36
2023/03/01 01:07:15;;;;;;;42.97;5.15;;;;;;;22.54;49.84;100699.53;7314106;19;130403;-38
2023/03/01 01:09:40;;;;;;;44.80;4.97;;;;;;;22.64;50.06;100700.47;7312272;19;128960;-43
2023/03/01 01:12:06;;;;;;;52.80;5.47;;;;;;;22.82;49.28;100699.88;7315253;19;128811;-36
2023/03/01 01:14:31;;;;;;;34.88;4.82;;;;;;;22.95;49.55;100704.97;7315366;19;130174;-39
2023/03/01 01:16:57;;;;;;;51.67;5.13;;;;;;;23.13;49.07;100700.88;7314391;19;129249;-41
2023/03/01 01:19:22;;;;;;;50.20;5.70;;;;;;;23.10;48.40;100704.59;7313287;19;128977;-39
2023/03/01 01:21:48;;;;;;;72.53;6.60;;;;;;;23.11;48.90;100697.53;7312459;19;129214;-41
2023/03/01 01:24:14;;;;;;;30.77;4.68;;;;;;;22.95;49.34;100669.09;7315053;19;131213;-40
2023/03/01 01:26:40;;;;;;;62.20;5.90;;;;;;;23.01;48.63;100683.50;7313033;19;129328;-39
2023/03/01 01:29:06;;;;;;;47.30;4.93;;;;;;;22.91;49.52;100683.41;7310010;19;129200;-40
2023/03/01 01:31:32;;;;;;;20.50;3.57;;;;;;;22.82;49.80;100680.69;7313591;19;129735;-38
2023/03/01 01:34:00;;;;;;;45.80;4.63;;;;;;;22.72;49.76;100677.13;7313400;19;129580;-39
2023/03/01 01:36:25;;;;;;;71.38;6.05;;;;;;;22.59;49.71;100671.16;7313086;19;129641;-41
2023/03/01 01:38:51;;;;;;;43.53;4.93;;;;;;;22.49;50.14;100675.44;7312545;19;129197;-40
2023/03/01 01:41:18;;;;;;;40.77;4.63;;;;;;;22.43;50.86;100681.97;7310676;19;129238;-38
2023/03/01 01:43:46;;;;;;;32.47;4.53;;;;;;;22.33;50.62;100681.00;7313328;19;130664;-38
2023/03/01 01:46:23;;;;;;;51.40;4.85;;;;;;;22.26;50.62;100674.59;7312345;19;130542;-40
2023/03/01 01:48:57;;;;;;;56.45;5.60;;;;;;;22.07;51.37;100666.44;7312389;19;129303;-40
2023/03/01 01:51:27;;;;;;;31.58;4.40;;;;;;;22.14;52.25;100686.00;7311852;19;129556;-36
2023/03/01 01:54:00;;;;;;;37.67;4.28;;;;;;;22.06;51.67;100677.03;7314294;19;129159;-36
2023/03/01 01:56:28;;;;;;;46.83;5.13;;;;;;;22.05;51.79;100686.69;7310572;19;129200;-37
2023/03/01 01:58:55;;;;;;;57.47;5.43;;;;;;;22.01;52.62;100679.19;7311984;19;129445;-40
2023/03/01 02:01:20;;;;;;;22.50;3.60;;;;;;;21.86;52.85;100649.75;7312430;19;129144;-43
2023/03/01 02:03:47;;;;;;;37.80;4.18;;;;;;;21.95;53.63;100660.38;7313863;19;130265;-39
2023/03/01 02:06:21;;;;;;;26.17;3.55;;;;;;;21.92;54.02;100665.00;7311409;19;130729;-43
2023/03/01 02:08:48;;;;;;;42.55;4.38;;;;;;;21.81;53.46;100652.72;7310129;19;129486;-41
2023/03/01 02:11:14;;;;;;;48.97;4.93;;;;;;;21.88;53.05;100669.63;7311963;19;129249;-39
2023/03/01 02:13:41;;;;;;;37.70;4.43;;;;;;;21.87;53.05;100662.72;7313478;19;129533;-38
2023/03/01 02:16:12;;;;;;;77.88;6.45;;;;;;;21.78;52.64;100647.69;7310713;19;129555;-41
2023/03/01 02:18:39;;;;;;;31.40;4.18;;;;;;;21.93;51.70;100650.97;7309944;19;129342;-36
2023/03/01 02:21:10;;;;;;;59.17;5.40;;;;;;;22.07;51.79;100652.50;7312598;19;128963;-41
2023/03/01 02:23:36;;;;;;;45.47;4.55;;;;;;;22.24;51.49;100657.31;7311431;19;129064;-39
2023/03/01 02:26:19;;;;;;;39.17;4.70;;;;;;;22.33;51.04;100648.75;7310626;19;129738;-40
2023/03/01 02:28:45;;;;;;;19.63;3.85;;;;;;;22.49;50.79;100643.97;7311148;19;129588;-37
2023/03/01 02:34:00;;;;;;;35.47;4.28;;;;;;;22.73;49.66;100635.03;7312874;19;129276;-38
2023/03/01 02:36:30;;;;;;;75.00;5.90;;;;;;;22.91;49.71;100637.97;7309093;19;130000;-42
2023/03/01 02:38:58;;;;;;;34.63;3.92;;;;;;;23.06;48.95;100631.50;7311378;19;129073;-37
2023/03/01 02:41:27;;;;;;;14.70;3.53;;;;;;;23.07;48.66;100609.56;7309968;19;129151;-41
2023/03/01 02:43:52;;;;;;;37.92;4.50;;;;;;;23.21;48.02;100625.84;7311606;19;129059;-40
2023/03/01 02:46:21;;;;;;;52.88;5.05;;;;;;;23.23;48.25;100625.72;7308820;19;130631;-41
2023/03/01 02:48:52;;;;;;;40.75;4.10;;;;;;;23.16;48.51;100629.81;7310104;19;128871;-37
2023/03/01 02:51:33;;;;;;;32.15;4.30;;;;;;;23.03;48.77;100635.22;7312724;19;128872;-42
2023/03/01 02:54:16;;;;;;;37.63;4.28;;;;;;;22.93;49.18;100628.19;7317690;19;130016;-38
2023/03/01 02:56:42;;;;;;;33.25;4.22;;;;;;;22.77;49.44;100635.63;7316772;19;129385;-43
2023/03/01 02:59:09;;;;;;;11.97;3.13;;;;;;;22.69;49.61;100632.78;7317076;19;129662;-38
2023/03/01 03:01:37;;;;;;;58.92;5.38;;;;;;;22.57;50.20;100631.13;7315979;19;129116;-44
2023/03/01 03:04:04;;;;;;;32.65;3.92;;;;;;;22.45;50.00;100616.31;7318581;19;129733;-40
2023/03/01 03:06:30;;;;;;;31.92;3.88;;;;;;;22.39;50.28;100630.75;7318645;19;131384;-37
2023/03/01 03:08:55;;;;;;;38.23;4.07;;;;;;;22.20;50.51;100616.56;7314920;19;128870;-40
2023/03/01 03:11:20;;;;;;;57.53;5.00;;;;;;;22.20;51.44;100625.28;7317615;19;129115;-43
2023/03/01 03:13:47;;;;;;;35.22;4.07;;;;;;;22.13;51.18;100628.50;7319096;19;129425;-40
2023/03/01 03:16:13;;;;;;;44.83;4.45;;;;;;;22.07;51.53;100626.31;7316812;19;130653;-42
2023/03/01 03:18:39;;;;;;;62.97;5.27;;;;;;;21.90;52.33;100604.88;7316407;19;128930;-40
2023/03/01 03:21:10;;;;;;;51.92;4.57;;;;;;;21.96;51.78;100619.31;7316049;19;129299;-39
2023/03/01 03:23:36;;;;;;;41.72;4.13;;;;;;;21.93;52.49;100619.56;7317265;19;129073;-39
2023/03/01 03:26:03;;;;;;;38.67;4.37;;;;;;;21.87;52.82;100626.06;7314006;19;130084;-36
2023/03/01 03:28:33;;;;;;;36.58;4.10;;;;;;;21.87;52.58;100630.47;7315881;19;128994;-42
2023/03/01 03:31:03;;;;;;;132.30;9.00;;;;;;;21.92;52.02;100621.31;7314192;19;129823;-39
2023/03/01 03:33:29;;;;;;;33.17;3.63;;;;;;;22.03;52.15;100619.66;7317618;19;129240;-39
2023/03/01 03:35:55;;;;;;;47.45;4.63;;;;;;;22.07;51.44;100611.47;7318030;19;129742;-37
2023/03/01 03:38:21;;;;;;;32.63;3.97;;;;;;;22.17;51.12;100611.56;7313697;19;131140;-41
2023/03/01 03:41:02;;;;;;;50.75;4.72;;;;;;;22.37;51.00;100603.00;7316969;19;128917;-40
2023/03/01 03:43:28;;;;;;;57.58;5.35;;;;;;;22.46;50.76;100603.09;7317957;19;129457;-43
2023/03/01 03:45:54;;;;;;;13.57;2.78;;;;;;;22.58;50.09;100593.47;7316938;19;129352;-38
2023/03/01 03:48:20;;;;;;;32.53;3.88;;;;;;;22.71;50.04;100597.63;7316848;19;129655;-38
2023/03/01 03:50:50;;;;;;;35.10;4.00;;;;;;;22.90;49.69;100604.84;7315659;19;129397;-36
2023/03/01 03:53:16;;;;;;;60.38;4.97;;;;;;;22.99;49.13;100609.38;7316326;19;129603;-42
2023/03/01 03:55:42;;;;;;;54.05;4.90;;;;;;;23.12;48.63;100597.72;7316261;19;129468;-42
2023/03/01 03:58:09;;;;;;;9.15;2.92;;;;;;;23.22;48.17;100598.66;7315841;19;129156;-40
2023/03/01 04:00:36;;;;;;;24.95;3.70;;;;;;;23.12;48.63;100584.63;7316387;19;128823;-42
2023/03/01 04:03:02;;;;;;;62.72;4.78;;;;;;;23.16;48.47;100595.69;7316242;19;129699;-43
2023/03/01 04:05:28;;;;;;;42.28;4.13;;;;;;;23.09;48.71;100602.41;7315922;19;129576;-43
2023/03/01 04:08:00;;;;;;;35.83;4.07;;;;;;;22.99;48.68;100612.00;7315993;19;129325;-40
2023/03/01 04:10:27;;;;;;;14.70;3.33;;;;;;;22.88;49.54;100614.63;7315395;19;129430;-37
2023/03/01 04:12:52;;;;;;;54.05;4.85;;;;;;;22.75;49.15;100616.56;7315835;19;129684;-40
2023/03/01 04:15:18;;;;;;;44.03;4.22;;;;;;;22.65;49.97;100618.25;7316786;19;129553;-39
2023/03/01 04:17:47;;;;;;;41.97;4.32;;;;;;;22.54;50.49;100620.91;7313589;19;129295;-40
2023/03/01 04:20:17;;;;;;;32.00;3.53;;;;;;;22.42;50.17;100627.06;7315702;19;129031;-43
2023/03/01 04:22:46;;;;;;;49.00;4.43;;;;;;;22.29;50.43;100614.09;7315909;19;130300;-36
2023/03/01 04:25:13;;;;;;;51.60;4.65;;;;;;;22.09;51.06;100599.09;7313622;19;129302;-38
2023/03/01 04:27:39;;;;;;;38.50;4.35;;;;;;;22.14;51.26;100617.91;7315831;19;129109;-40
2023/03/01 04:30:05;;;;;;;12.53;2.87;;;;;;;22.07;51.80;100615.84;7313800;19;129113;-38
2023/03/01 04:32:31;;;;;;;34.07;3.80;;;;;;;22.01;52.16;100611.09;7315093;19;129562;-36
2023/03/01 04:34:57;;;;;;;64.37;5.47;;;;;;;21.93;51.88;100604.66;7312702;19;129375;-38
2023/03/01 04:37:23;;;;;;;50.80;4.80;;;;;;;21.98;51.53;100611.34;7315941;19;130224;-39
2023/03/01 04:39:49;;;;;;;40.30;4.10;;;;;;;22.22;50.94;100594.56;7311180;19;130284;-40
2023/03/01 04:42:15;;;;;;;42.03;3.97;;;;;;;22.65;50.20;100602.53;7315638;19;129591;-39
2023/03/01 04:44:40;;;;;;;63.20;5.03;;;;;;;23.05;48.74;100575.59;7316147;19;129707;-38
2023/03/01 04:47:06;;;;;;;37.47;4.07;;;;;;;23.63;47.27;100597.91;7315574;19;129767;-39
2023/03/01 04:49:31;;;;;;;41.22;3.90;;;;;;;24.08;46.10;100601.09;7311406;19;129170;-39
2023/03/01 04:52:01;;;;;;;66.63;5.28;;;;;;;24.37;45.97;100600.22;7314298;19;130226;-35
2023/03/01 04:54:36;;;;;;;43.50;4.00;;;;;;;24.57;45.28;100595.00;7315649;19;129718;-46
2023/03/01 04:57:03;;;;;;;23.33;3.10;;;;;;;24.77;44.38;100596.75;7314483;19;128933;-40
2023/03/01 04:59:29;;;;;;;38.83;3.85;;;;;;;24.98;44.50;100608.00;7310918;19;128914;-39
2023/03/01 05:01:55;;;;;;;35.75;3.78;;;;;;;25.03;44.14;100587.38;7314247;19;129183;-40
2023/03/01 05:04:24;;;;;;;59.85;4.88;;;;;;;25.14;43.50;100603.03;7315564;19;130144;-40
2023/03/01 05:06:49;;;;;;;48.33;4.32;;;;;;;25.22;43.34;100608.44;7313385;19;129090;-36
2023/03/01 05:09:15;;;;;;;14.80;2.87;;;;;;;25.33;43.32;100608.28;7310996;19;130018;-41
2023/03/01 05:11:40;;;;;;;38.20;3.72;;;;;;;25.39;43.44;100594.59;7311937;19;129090;-36
2023/03/01 05:14:06;;;;;;;51.13;4.33;;;;;;;25.31;42.74;100583.91;7314876;19;129615;-39
2023/03/01 05:16:32;;;;;;;151.93;9.48;;;;;;;25.48;43.27;100596.41;7310729;19;130145;-42
2023/03/01 05:18:59;;;;;;;50.47;4.70;;;;;;;25.51;43.32;100607.50;7312130;19;129022;-39
2023/03/01 05:21:25;;;;;;;42.60;3.88;;;;;;;25.55;42.36;100594.88;7314887;19;129558;-41
2023/03/01 05:23:51;;;;;;;49.97;4.07;;;;;;;25.38;42.83;100588.53;7314888;19;130238;-38
2023/03/01 05:26:21;;;;;;;28.33;3.20;;;;;;;25.50;42.66;100597.09;7314311;19;129041;-37
2023/03/01 05:28:47;;;;;;;18.55;2.95;;;;;;;25.41;42.45;100582.97;7312890;19;128857;-36
2023/03/01 05:31:12;;;;;;;35.80;3.70;;;;;;;25.53;43.05;100589.75;7311178;19;129414;-34
2023/03/01 05:33:39;;;;;;;57.00;4.63;;;;;;;25.57;42.31;100587.63;7313189;19;129201;-40
2023/03/01 05:36:05;;;;;;;;;;;;;;;25.59;43.03;100585.69;7313234;19;128696;-38
2023/03/01 05:38:30;;;;;;;34.78;3.80;;;;;;;25.49;42.70;100585.72;7310674;19;128942;-39
2023/03/01 05:40:56;;;;;;;29.30;3.47;;;;;;;25.51;42.75;100575.88;7310932;19;130044;-41
2023/03/01 05:43:21;;;;;;;85.30;6.30;;;;;;;25.45;43.26;100580.88;7313247;19;129623;-41
2023/03/01 05:45:47;;;;;;;36.67;3.73;;;;;;;25.42;42.81;100584.63;7313149;19;130033;-37
2023/03/01 05:48:13;;;;;;;50.33;4.17;;;;;;;25.43;43.37;100585.47;7311720;19;128888;-36
2023/03/01 05:50:43;;;;;;;69.78;5.40;;;;;;;25.38;42.86;100587.69;7311586;19;129325;-40
2023/03/01 05:53:15;;;;;;;59.42;4.63;;;;;;;25.25;43.54;100572.16;7313947;19;130654;-41
2023/03/01 05:55:40;;;;;;;68.18;5.03;;;;;;;25.27;42.93;100585.16;7310897;19;129628;-39
2023/03/01 05:58:13;;;;;;;50.03;4.30;;;;;;;25.14;43.33;100584.63;7312253;19;128923;-42
2023/03/01 06:00:39;;;;;;;62.47;4.85;;;;;;;24.87;43.62;100566.03;7312080;19;130379;-39
2023/03/01 06:03:05;;;;;;;74.60;5.23;;;;;;;24.82;44.33;100599.81;7311104;19;129142;-38
2023/03/01 06:05:30;;;;;;;36.83;4.67;;;;;;;24.52;44.80;100584.06;7310668;19;129682;-41
2023/03/01 06:07:58;;;;;;;15.57;3.47;;;;;;;24.48;44.04;100594.88;7311040;19;129111;-37
2023/03/01 06:10:24;;;;;;;29.58;4.22;;;;;;;24.28;44.16;100574.72;7306795;19;129596;-39
2023/03/01 06:12:49;;;;;;;57.83;5.07;;;;;;;24.35;44.40;100599.53;7312888;19;129635;-36
2023/03/01 06:15:16;;;;;;;46.37;4.70;;;;;;;24.23;44.89;100581.34;7308326;19;129695;-42
2023/03/01 06:17:44;;;;;;;38.40;4.00;;;;;;;24.36;44.87;100598.53;7312538;19;129282;-39
2023/03/01 06:20:16;;;;;;;34.65;4.10;;;;;;;24.31;44.64;100595.50;7312308;19;129678;-41
2023/03/01 06:22:41;;;;;;;56.78;4.80;;;;;;;24.30;44.66;100601.72;7312133;19;129174;-39
2023/03/01 06:25:08;;;;;;;49.20;4.77;;;;;;;24.34;44.88;100603.13;7307909;19;129626;-40
2023/03/01 06:27:34;;;;;;;26.15;3.50;;;;;;;24.40;45.16;100601.75;7311212;19;129445;-37
2023/03/01 06:29:59;;;;;;;47.47;5.05;;;;;;;24.37;45.29;100605.50;7310428;19;129318;-43
2023/03/01 06:32:24;;;;;;;56.45;4.75;;;;;;;24.39;44.45;100611.41;7310089;19;130245;-40
2023/03/01 06:34:50;;;;;;;58.73;5.03;;;;;;;24.42;45.11;100610.34;7310519;19;129597;-46
2023/03/01 06:37:15;;;;;;;33.73;4.27;;;;;;;24.44;44.48;100608.41;7309801;19;128967;-39
2023/03/01 06:39:41;;;;;;;28.43;3.60;;;;;;;24.54;44.75;100609.28;7306777;19;129552;-38
2023/03/01 06:42:07;;;;;;;95.57;7.73;;;;;;;24.55;44.98;100607.47;7305457;19;130139;-39
2023/03/01 06:44:33;;;;;;;;;;;;;;;24.46;45.19;100609.94;7310978;19;129164;-36
2023/03/01 06:46:59;;;;;;;45.42;4.75;;;;;;;24.56;44.95;100611.78;7308599;19;129727;-39
2023/03/01 06:49:24;;;;;;;15.60;3.33;;;;;;;24.51;44.39;100616.59;7308060;19;129128;-36
2023/03/01 06:51:49;;;;;;;57.70;5.10;;;;;;;24.52;44.83;100613.84;7312579;19;129507;-40
2023/03/01 06:54:15;;;;;;;34.93;4.10;;;;;;;24.60;44.59;100613.16;7310324;19;128985;-41
2023/03/01 06:56:40;;;;;;;38.93;4.13;;;;;;;24.64;44.35;100606.66;7311169;19;128925;-40
2023/03/01 06:59:05;;;;;;;48.60;4.97;;;;;;;24.66;44.06;100605.56;7306980;19;129476;-36
2023/03/01 07:01:31;;;;;;;65.93;5.53;;;;;;;24.57;44.81;100606.38;7312153;19;129416;-40
2023/03/01 07:03:57;;;;;;;49.40;4.67;;;;;;;24.48;44.75;100611.63;7310134;19;128952;-41
2023/03/01 07:06:23;;;;;;;35.30;4.37;;;;;;;24.32;45.25;100602.44;7309806;19;129090;-44
2023/03/01 07:08:49;;;;;;;48.78;4.38;;;;;;;24.27;45.55;100609.88;7310484;19;129088;-41
2023/03/01 07:11:15;;;;;;;48.50;4.87;;;;;;;24.24;45.47;100610.16;7307177;19;129768;-39
2023/03/01 07:13:40;;;;;;;35.33;4.17;;;;;;;24.22;45.81;100606.81;7311302;19;129198;-38
2023/03/01 07:16:06;;;;;;;31.80;4.05;;;;;;;24.19;45.59;100607.09;7309344;19;128904;-37
2023/03/01 07:18:31;;;;;;;80.53;6.40;;;;;;;24.12;45.70;100579.66;7309118;19;129428;-40
2023/03/01 07:20:57;;;;;;;45.83;4.70;;;;;;;24.22;45.60;100598.94;7309032;19;129530;-46
2023/03/01 07:23:22;;;;;;;30.97;4.20;;;;;;;24.32;44.96;100591.91;7310884;19;128916;-41
2023/03/01 07:25:52;;;;;;;43.13;4.57;;;;;;;24.29;45.45;100573.78;7310826;19;129492;-37
2023/03/01 07:28:18;;;;;;;77.32;6.20;;;;;;;24.45;44.97;100589.03;7305912;19;130847;-41
2023/03/01 07:30:44;;;;;;;34.87;4.40;;;;;;;24.45;44.73;100592.50;7309125;19;129617;-40
2023/03/01 07:33:09;;;;;;;34.83;3.78;;;;;;;24.51;45.20;100590.31;7310135;19;129162;-37
2023/03/01 07:35:35;;;;;;;35.53;4.18;;;;;;;24.51;44.58;100591.13;7310225;19;129352;-39
2023/03/01 07:38:00;;;;;;;55.83;4.90;;;;;;;24.48;44.85;100569.56;7308948;19;129140;-38
2023/03/01 07:40:25;;;;;;;42.15;4.30;;;;;;;24.68;44.15;100584.41;7316626;19;129263;-39
2023/03/01 07:42:55;;;;;;;35.97;4.13;;;;;;;24.67;44.58;100582.72;7316689;19;128815;-38
2023/03/01 07:45:21;;;;;;;34.63;3.47;;;;;;;24.72;44.49;100583.19;7316509;19;129064;-39
2023/03/01 07:47:46;;;;;;;59.60;5.07;;;;;;;24.70;44.71;100579.84;7316267;19;129073;-41
2023/03/01 07:50:13;;;;;;;34.07;3.77;;;;;;;24.73;44.39;100585.69;7317475;19;129093;-39
2023/03/01 07:52:38;;;;;;;;;;;;;;;24.58;44.38;100583.56;7317079;19;128795;-41
2023/03/01 07:55:04;;;;;;;65.57;6.00;;;;;;;24.48;45.02;100586.97;7316527;19;129288;-40
2023/03/01 07:57:29;;;;;;;57.13;4.70;;;;;;;24.25;45.55;100569.75;7315830;19;130805;-40
2023/03/01 07:59:54;;;;;;;34.65;4.05;;;;;;;24.21;45.21;100584.09;7316682;19;129339;-42
2023/03/01 08:02:20;;;;;;;50.87;5.00;;;;;;;24.14;45.80;100575.09;7317020;19;129307;-38
2023/03/01 08:04:48;;;;;;;37.50;3.97;;;;;;;24.02;45.94;100563.03;7314121;19;129085;-44
2023/03/01 08:07:14;;;;;;;38.17;4.20;;;;;;;24.13;46.18;100570.81;7316284;19;129058;-40
2023/03/01 08:09:39;;;;;;;38.80;4.43;;;;;;;24.14;45.61;100577.75;7314548;19;129659;-43
2023/03/01 08:12:05;;;;;;;37.53;4.07;;;;;;;24.17;45.83;100572.22;7316401;19;129405;-43
2023/03/01 08:14:32;;;;;;;38.40;4.53;;;;;;;24.26;45.63;100571.41;7316614;19;129033;-42
2023/03/01 08:16:57;;;;;;;;;;;;;;;24.25;45.55;100569.75;7316550;19;130320;-38
2023/03/01 08:19:23;;;;;;;25.13;3.53;;;;;;;24.33;45.13;100567.28;7314932;19;129100;-39
2023/03/01 08:21:48;;;;;;;17.37;3.77;;;;;;;24.37;45.25;100552.91;7316879;19;128934;-39
2023/03/01 08:24:13;;;;;;;43.57;4.23;;;;;;;24.44;45.41;100559.28;7316172;19;129391;-40
2023/03/01 08:26:39;;;;;;;95.97;7.10;;;;;;;24.49;45.17;100556.28;7314294;19;129612;-38
2023/03/01 08:29:04;;;;;;;41.40;4.57;;;;;;;24.48;44.85;100559.84;7313440;19;129465;-38
2023/03/01 08:31:35;;;;;;;40.03;4.60;;;;;;;24.52;44.97;100550.72;7314029;19;129152;-41
2023/03/01 08:34:04;;;;;;;45.88;4.78;;;;;;;24.62;44.78;100548.94;7314913;19;128837;-39
2023/03/01 08:36:32;;;;;;;50.28;4.72;;;;;;;24.59;44.84;100538.72;7313378;19;129468;-43
2023/03/01 08:38:58;;;;;;;46.30;4.82;;;;;;;24.63;44.72;100552.41;7313876;19;129418;-43
2023/03/01 08:41:23;;;;;;;37.77;4.00;;;;;;;24.60;44.38;100552.66;7313660;19;129557;-36
2023/03/01 08:43:49;;;;;;;35.37;4.00;;;;;;;24.48;45.50;100552.78;7314371;19;130739;-43
2023/03/01 08:46:15;;;;;;;53.93;5.00;;;;;;;24.39;44.86;100550.16;7314449;19;130272;-39
2023/03/01 08:48:42;;;;;;;51.90;5.13;;;;;;;24.20;45.92;100561.44;7311077;19;130304;-40
2023/03/01 08:51:19;;;;;;;33.30;4.03;;;;;;;23.95;45.91;100530.31;7310959;19;129253;-40
2023/03/01 08:53:45;;;;;;;40.22;4.43;;;;;;;23.96;45.99;100553.03;7315604;19;130257;-40
2023/03/01 08:56:11;;;;;;;54.87;4.97;;;;;;;23.91;46.43;100563.09;7313653;19;129785;-39
2023/03/01 08:58:37;;;;;;;36.37;4.13;;;;;;;23.90;46.78;100548.28;7314016;19;129271;-40
2023/03/01 09:01:10;;;;;;;33.40;3.75;;;;;;;23.91;46.18;100549.94;7315768;19;129567;-38
2023/03/01 09:03:36;;;;;;;57.40;5.22;;;;;;;23.92;46.79;100551.59;7312714;19;129552;-42
2023/03/01 09:06:03;;;;;;;57.20;5.20;;;;;;;23.97;46.10;100541.53;7313581;19;128994;-40
2023/03/01 09:08:29;;;;;;;33.67;3.85;;;;;;;24.05;46.40;100539.09;7313603;19;129379;-41
2023/03/01 09:10:54;;;;;;;33.07;3.80;;;;;;;24.17;45.72;100539.84;7311965;19;128972;-43
2023/03/01 09:13:20;;;;;;;30.40;3.90;;;;;;;24.23;46.12;100539.28;7314839;19;129365;-39
2023/03/01 09:15:45;;;;;;;75.30;5.93;;;;;;;24.35;45.90;100539.06;7312989;19;129368;-41
2023/03/01 09:18:10;;;;;;;55.40;5.10;;;;;;;24.31;45.74;100516.63;7314307;19;129472;-41
2023/03/01 09:20:36;;;;;;;111.80;8.10;;;;;;;24.39;45.36;100518.59;7312066;19;129589;-40
2023/03/01 09:23:01;;;;;;;40.22;4.35;;;;;;;24.47;45.65;100516.13;7313718;19;129196;-40
2023/03/01 09:25:26;;;;;;;57.47;4.90;;;;;;;24.48;45.25;100520.41;7313763;19;130157;-43
2023/03/01 09:27:53;;;;;;;39.83;4.20;;;;;;;24.53;45.14;100514.75;7312471;19;129216;-38
2023/03/01 09:30:18;;;;;;;33.35;4.05;;;;;;;24.53;45.42;100517.41;7312521;19;129149;-40
2023/03/01 09:32:44;;;;;;;38.87;3.80;;;;;;;24.36;45.44;100492.59;7314281;19;129148;-40
2023/03/01 09:35:10;;;;;;;62.80;5.40;;;;;;;24.35;45.19;100515.41;7313195;19;130059;-40
2023/03/01 09:37:37;;;;;;;43.10;4.40;;;;;;;24.24;46.06;100512.91;7313775;19;129674;-44
2023/03/01 09:40:05;;;;;;;34.92;4.00;;;;;;;24.04;45.88;100508.56;7314551;19;128805;-41
2023/03/01 09:42:34;;;;;;;45.85;4.82;;;;;;;23.97;46.01;100507.38;7310750;19;131328;-38
2023/03/01 09:45:04;;;;;;;75.45;6.35;;;;;;;23.91;46.76;100509.72;7313720;19;129104;-41
2023/03/01 09:47:34;;;;;;;38.63;4.30;;;;;;;23.92;46.87;100514.00;7314490;19;129313;-40
2023/03/01 09:50:11;;;;;;;47.83;4.95;;;;;;;23.88;46.96;100518.69;7310925;19;129830;-37
2023/03/01 09:52:45;;;;;;;33.55;3.90;;;;;;;23.92;46.55;100514.00;7313316;19;129177;-37
2023/03/01 09:55:16;;;;;;;53.00;4.72;;;;;;;23.98;46.40;100516.94;7311556;19;129558;-41
2023/03/01 09:57:53;;;;;;;56.83;4.65;;;;;;;24.04;46.14;100513.81;7312785;19;129515;-38
2023/03/01 10:00:22;;;;;;;118.50;8.20;;;;;;;24.12;45.73;100511.34;7311359;19;130229;-38
2023/03/01 10:03:03;;;;;;;36.55;4.30;;;;;;;24.20;45.88;100508.88;7312441;19;130176;-38
2023/03/01 10:05:55;;;;;;;37.92;4.15;;;;;;;24.28;45.41;100511.66;7313170;19;130184;-42
2023/03/01 10:08:24;;;;;;;19.40;3.75;;;;;;;24.40;45.70;100509.75;7312828;19;129708;-39
2023/03/01 10:10:51;;;;;;;17.75;3.38;;;;;;;24.43;45.33;100498.97;7310813;19;128800;-38
2023/03/01 10:13:24;;;;;;;39.88;3.90;;;;;;;24.48;44.88;100516.97;7312318;19;129165;-41
2023/03/01 10:16:11;;;;;;;42.88;4.38;;;;;;;24.50;45.45;100513.22;7311826;19;129044;-40
2023/03/01 10:18:38;;;;;;;52.80;4.78;;;;;;;24.43;45.64;100512.94;7311459;19;129367;-41
2023/03/01 10:21:31;;;;;;;60.15;5.18;;;;;;;24.37;45.40;100510.03;7312757;19;129533;-35
2023/03/01 10:24:08;;;;;;;57.90;4.93;;;;;;;24.21;46.13;100509.72;7311769;19;128971;-41
2023/03/01 10:26:34;;;;;;;36.78;3.97;;;;;;;24.09;45.90;100510.78;7312675;19;129510;-41
2023/03/01 10:29:09;;;;;;;27.93;3.60;;;;;;;23.93;46.49;100505.97;7310569;19;129180;-43
2023/03/01 10:31:44;;;;;;;39.58;4.35;;;;;;;23.77;46.94;100503.03;7310094;19;128822;-39
2023/03/01 10:34:13;;;;;;;55.70;5.20;;;;;;;23.75;46.75;100504.94;7312637;19;129079;-38
2023/03/01 10:36:40;;;;;;;56.65;5.10;;;;;;;23.62;47.06;100485.94;7311280;19;129486;-39
2023/03/01 10:39:17;;;;;;;61.65;5.82;;;;;;;23.79;47.04;100503.72;7309871;19;129538;-41
2023/03/01 10:41:57;;;;;;;14.53;3.10;;;;;;;23.72;46.85;100478.94;7311555;19;129396;-42
2023/03/01 10:44:41;;;;;;;55.08;4.82;;;;;;;23.94;46.84;100491.06;7312797;19;129506;-39
2023/03/01 10:47:23;;;;;;;34.08;3.75;;;;;;;23.95;46.62;100493.56;7310584;19;129096;-38
2023/03/01 10:49:57;;;;;;;23.80;3.53;;;;;;;24.05;46.07;100489.19;7309580;19;129206;-37
2023/03/01 10:52:31;;;;;;;94.28;7.03;;;;;;;24.09;46.38;100484.50;7309739;19;129030;-45
2023/03/01 10:55:00;;;;;;;84.47;6.60;;;;;;;24.23;45.94;100479.69;7310654;19;129940;-40
2023/03/01 10:57:36;;;;;;;39.78;3.95;;;;;;;24.30;45.55;100477.34;7311019;19;129219;-39
2023/03/01 11:00:18;;;;;;;22.07;3.30;;;;;;;24.41;45.37;100474.63;7311995;19;130947;-35
2023/03/01 11:02:48;;;;;;;96.68;6.60;;;;;;;24.34;45.50;100466.47;7310531;19;128991;-40
2023/03/01 11:05:19;;;;;;;37.55;4.07;;;;;;;24.29;45.99;100468.66;7310333;19;130165;-37
2023/03/01 11:08:03;;;;;;;40.63;4.20;;;;;;;24.17;45.96;100468.91;7311417;19;129742;-40
2023/03/01 11:10:30;;;;;;;34.33;4.03;;;;;;;24.06;46.16;100469.84;7309732;19;130138;-41
2023/03/01 11:13:15;;;;;;;56.47;4.65;;;;;;;23.88;46.41;100470.59;7310926;19;130092;-41
2023/03/01 11:15:41;;;;;;;59.03;4.90;;;;;;;23.76;46.95;100472.47;7318814;19;129066;-37